sensor_id;sensor_type;location;lat;lon;timestamp;pressure;altitude;pressure_sealevel;temperature;humidity
38225;BME280;24025;48.138;11.428;2023-05-07T00:00:55;95475.38;;;13.72;78.81
38225;BME280;24025;48.138;11.428;2023-05-07T00:03:27;95473.47;;;13.73;78.91
38225;BME280;24025;48.138;11.428;2023-05-07T00:05:59;95474.63;;;13.72;78.83
38225;BME280;24025;48.138;11.428;2023-05-07T00:08:31;95463.88;;;13.68;79.31
38225;BME280;24025;48.138;11.428;2023-05-07T00:11:02;95475.38;;;13.72;79.31
38225;BME280;24025;48.138;11.428;2023-05-07T00:13:34;95474.59;;;13.68;78.93
38225;BME280;24025;48.138;11.428;2023-05-07T00:16:07;95479.59;;;13.66;78.86
38225;BME280;24025;48.138;11.428;2023-05-07T00:18:38;95472.31;;;13.67;78.78
38225;BME280;24025;48.138;11.428;2023-05-07T00:21:11;95466.56;;;13.65;78.54
38225;BME280;24025;48.138;11.428;2023-05-07T00:23:42;95462.75;;;13.62;79.17
38225;BME280;24025;48.138;11.428;2023-05-07T00:26:14;95471.94;;;13.61;79.32
38225;BME280;24025;48.138;11.428;2023-05-07T00:28:45;95468.09;;;13.58;79.53
38225;BME280;24025;48.138;11.428;2023-05-07T00:31:17;95461.22;;;13.57;79.26
38225;BME280;24025;48.138;11.428;2023-05-07T00:33:48;95456.63;;;13.58;79.44
38225;BME280;24025;48.138;11.428;2023-05-07T00:36:20;95459.69;;;13.53;79.98
38225;BME280;24025;48.138;11.428;2023-05-07T00:38:53;95457.78;;;13.53;79.60
38225;BME280;24025;48.138;11.428;2023-05-07T00:41:24;95461.59;;;13.52;79.68
38225;BME280;24025;48.138;11.428;2023-05-07T00:43:56;95461.97;;;13.47;79.75
38225;BME280;24025;48.138;11.428;2023-05-07T00:46:28;95462.75;;;13.44;79.85
38225;BME280;24025;48.138;11.428;2023-05-07T00:49:02;95466.94;;;13.42;79.99
38225;BME280;24025;48.138;11.428;2023-05-07T00:51:33;95455.44;;;13.41;80.08
38225;BME280;24025;48.138;11.428;2023-05-07T00:54:05;95466.56;;;13.43;79.81
38225;BME280;24025;48.138;11.428;2023-05-07T00:56:37;95458.13;;;13.41;80.38
38225;BME280;24025;48.138;11.428;2023-05-07T00:59:10;95467.34;;;13.44;80.05
38225;BME280;24025;48.138;11.428;2023-05-07T01:01:42;95474.97;;;13.42;79.94
38225;BME280;24025;48.138;11.428;2023-05-07T01:04:13;95473.84;;;13.36;80.52
38225;BME280;24025;48.138;11.428;2023-05-07T01:06:46;95466.94;;;13.35;80.32
38225;BME280;24025;48.138;11.428;2023-05-07T01:09:18;95461.94;;;13.33;81.01
38225;BME280;24025;48.138;11.428;2023-05-07T01:11:52;95466.19;;;13.38;80.68
38225;BME280;24025;48.138;11.428;2023-05-07T01:14:25;95468.47;;;13.39;80.53
38225;BME280;24025;48.138;11.428;2023-05-07T01:16:57;95463.50;;;13.41;79.99
38225;BME280;24025;48.138;11.428;2023-05-07T01:19:30;95458.91;;;13.38;80.25
38225;BME280;24025;48.138;11.428;2023-05-07T01:22:07;95464.63;;;13.33;80.25
38225;BME280;24025;48.138;11.428;2023-05-07T01:24:39;95464.25;;;13.27;80.44
38225;BME280;24025;48.138;11.428;2023-05-07T01:27:11;95463.09;;;13.25;80.33
38225;BME280;24025;48.138;11.428;2023-05-07T01:29:42;95453.94;;;13.26;80.60
38225;BME280;24025;48.138;11.428;2023-05-07T01:32:15;95458.13;;;13.27;80.65
38225;BME280;24025;48.138;11.428;2023-05-07T01:34:51;95453.53;;;13.27;80.70
38225;BME280;24025;48.138;11.428;2023-05-07T01:37:25;95448.94;;;13.28;80.68
38225;BME280;24025;48.138;11.428;2023-05-07T01:39:57;95455.44;;;13.23;80.90
38225;BME280;24025;48.138;11.428;2023-05-07T01:42:29;95454.66;;;13.23;80.98
38225;BME280;24025;48.138;11.428;2023-05-07T01:45:01;95443.97;;;13.23;80.74
38225;BME280;24025;48.138;11.428;2023-05-07T01:47:33;95452.38;;;13.21;80.99
38225;BME280;24025;48.138;11.428;2023-05-07T01:50:08;95442.78;;;13.17;80.86
38225;BME280;24025;48.138;11.428;2023-05-07T01:52:41;95438.19;;;13.17;81.02
38225;BME280;24025;48.138;11.428;2023-05-07T01:55:13;70901.09;;;13.13;80.95
38225;BME280;24025;48.138;11.428;2023-05-07T01:57:44;95449.28;;;13.09;81.42
38225;BME280;24025;48.138;11.428;2023-05-07T02:00:17;95448.88;;;13.07;81.41
38225;BME280;24025;48.138;11.428;2023-05-07T02:02:49;95444.66;;;13.02;81.57
38225;BME280;24025;48.138;11.428;2023-05-07T02:05:20;95446.97;;;13.03;81.80
38225;BME280;24025;48.138;11.428;2023-05-07T02:07:52;95446.59;;;13.01;81.55
38225;BME280;24025;48.138;11.428;2023-05-07T02:10:23;95447.31;;;12.98;82.12
38225;BME280;24025;48.138;11.428;2023-05-07T02:12:55;95448.88;;;12.99;81.84
38225;BME280;24025;48.138;11.428;2023-05-07T02:15:27;95450.78;;;12.99;82.23
38225;BME280;24025;48.138;11.428;2023-05-07T02:18:04;95450.41;;;13.00;81.86
38225;BME280;24025;48.138;11.428;2023-05-07T02:20:36;95456.16;;;12.99;82.39
38225;BME280;24025;48.138;11.428;2023-05-07T02:23:08;95454.63;;;13.01;82.02
38225;BME280;24025;48.138;11.428;2023-05-07T02:25:39;95456.53;;;13.01;81.55
38225;BME280;24025;48.138;11.428;2023-05-07T02:28:12;95456.53;;;13.01;81.55
38225;BME280;24025;48.138;11.428;2023-05-07T02:30:43;95456.13;;;12.95;81.94
38225;BME280;24025;48.138;11.428;2023-05-07T02:33:15;95451.53;;;12.92;82.16
38225;BME280;24025;48.138;11.428;2023-05-07T02:35:46;95448.47;;;12.90;82.39
38225;BME280;24025;48.138;11.428;2023-05-07T02:38:18;95448.84;;;12.89;82.30
38225;BME280;24025;48.138;11.428;2023-05-07T02:40:50;95454.94;;;12.89;82.12
38225;BME280;24025;48.138;11.428;2023-05-07T02:43:21;95456.13;;;12.92;81.79
38225;BME280;24025;48.138;11.428;2023-05-07T02:48:34;95463.75;;;12.86;81.75
38225;BME280;24025;48.138;11.428;2023-05-07T02:51:06;95462.22;;;12.85;81.96
38225;BME280;24025;48.138;11.428;2023-05-07T02:53:37;95453.81;;;12.83;82.63
38225;BME280;24025;48.138;11.428;2023-05-07T02:56:09;95446.91;;;12.79;82.01
38225;BME280;24025;48.138;11.428;2023-05-07T02:58:41;95453.00;;;12.79;82.16
38225;BME280;24025;48.138;11.428;2023-05-07T03:01:13;95452.25;;;12.79;81.94
38225;BME280;24025;48.138;11.428;2023-05-07T03:03:45;95452.63;;;12.77;82.12
38225;BME280;24025;48.138;11.428;2023-05-07T03:06:17;95458.34;;;12.72;82.49
38225;BME280;24025;48.138;11.428;2023-05-07T03:08:48;95441.13;;;12.69;82.63
38225;BME280;24025;48.138;11.428;2023-05-07T03:11:20;95443.81;;;12.66;82.94
38225;BME280;24025;48.138;11.428;2023-05-07T03:13:52;95451.03;;;12.62;83.03
38225;BME280;24025;48.138;11.428;2023-05-07T03:16:23;95449.50;;;12.61;83.09
38225;BME280;24025;48.138;11.428;2023-05-07T03:18:55;95447.97;;;12.60;82.96
38225;BME280;24025;48.138;11.428;2023-05-07T03:21:26;95444.53;;;12.59;82.84
38225;BME280;24025;48.138;11.428;2023-05-07T03:23:58;95434.97;;;12.58;83.06
38225;BME280;24025;48.138;11.428;2023-05-07T03:26:30;95439.97;;;12.60;82.91
38225;BME280;24025;48.138;11.428;2023-05-07T03:29:01;95433.47;;;12.61;82.95
38225;BME280;24025;48.138;11.428;2023-05-07T03:31:33;95438.03;;;-143.80;82.58
38225;BME280;24025;48.138;11.428;2023-05-07T03:34:04;95443.78;;;12.59;82.70
38225;BME280;24025;48.138;11.428;2023-05-07T03:36:36;95447.22;;;12.59;82.54
38225;BME280;24025;48.138;11.428;2023-05-07T03:39:08;95443.00;;;12.55;82.81
38225;BME280;24025;48.138;11.428;2023-05-07T03:41:39;95444.16;;;12.57;82.64
38225;BME280;24025;48.138;11.428;2023-05-07T03:44:11;95444.16;;;12.57;82.64
38225;BME280;24025;48.138;11.428;2023-05-07T03:46:42;95456.72;;;12.50;82.49
38225;BME280;24025;48.138;11.428;2023-05-07T03:49:14;95446.78;;;12.46;82.48
38225;BME280;24025;48.138;11.428;2023-05-07T03:51:46;95445.63;;;12.40;82.52
38225;BME280;24025;48.138;11.428;2023-05-07T03:54:17;95446.72;;;12.36;82.92
38225;BME280;24025;48.138;11.428;2023-05-07T03:56:50;95445.19;;;12.35;83.14
38225;BME280;24025;48.138;11.428;2023-05-07T03:59:22;95455.13;;;12.34;82.99
38225;BME280;24025;48.138;11.428;2023-05-07T04:01:53;95455.13;;;12.31;82.79
38225;BME280;24025;48.138;11.428;2023-05-07T04:04:25;95461.22;;;12.31;82.96
38225;BME280;24025;48.138;11.428;2023-05-07T04:06:57;95463.53;;;12.33;82.92
38225;BME280;24025;48.138;11.428;2023-05-07T04:09:29;95464.28;;;12.33;82.79
38225;BME280;24025;48.138;11.428;2023-05-07T04:12:00;95465.44;;;12.29;82.64
38225;BME280;24025;48.138;11.428;2023-05-07T04:14:33;95470.03;;;12.32;82.80
38225;BME280;24025;48.138;11.428;2023-05-07T04:17:05;95468.88;;;12.33;82.62
38225;BME280;24025;48.138;11.428;2023-05-07T04:19:38;95477.31;;;12.38;82.14
38225;BME280;24025;48.138;11.428;2023-05-07T04:22:09;95472.69;;;12.35;82.46
38225;BME280;24025;48.138;11.428;2023-05-07T04:24:41;95470.03;;;12.35;82.47
38225;BME280;24025;48.138;11.428;2023-05-07T04:27:13;95471.56;;;12.36;82.42
38225;BME280;24025;48.138;11.428;2023-05-07T04:29:44;95472.31;;;12.33;82.14
38225;BME280;24025;48.138;11.428;2023-05-07T04:32:18;95472.31;;;12.33;82.14
38225;BME280;24025;48.138;11.428;2023-05-07T04:34:50;95475.75;;;12.30;82.07
38225;BME280;24025;48.138;11.428;2023-05-07T04:37:22;95475.75;;;12.30;82.45
38225;BME280;24025;48.138;11.428;2023-05-07T04:39:53;95489.50;;;12.36;82.62
38225;BME280;24025;48.138;11.428;2023-05-07T04:42:25;66607.47;;;-143.80;100.00
38225;BME280;24025;48.138;11.428;2023-05-07T04:44:56;66607.47;;;-143.80;100.00
38225;BME280;24025;48.138;11.428;2023-05-07T04:47:28;66607.47;;;-143.80;100.00
38225;BME280;24025;48.138;11.428;2023-05-07T04:49:59;66607.47;;;-143.80;100.00
38225;BME280;24025;48.138;11.428;2023-05-07T04:52:31;66607.47;;;-143.80;100.00
38225;BME280;24025;48.138;11.428;2023-05-07T04:55:03;66607.47;;;-143.80;100.00
38225;BME280;24025;48.138;11.428;2023-05-07T04:57:34;66607.47;;;-143.80;100.00
38225;BME280;24025;48.138;11.428;2023-05-07T05:00:07;66607.47;;;-143.80;100.00
38225;BME280;24025;48.138;11.428;2023-05-07T05:02:40;66607.47;;;-143.80;100.00
38225;BME280;24025;48.138;11.428;2023-05-07T05:05:12;66607.47;;;-143.80;100.00
38225;BME280;24025;48.138;11.428;2023-05-07T05:07:44;66607.47;;;-143.80;100.00
38225;BME280;24025;48.138;11.428;2023-05-07T05:10:15;66607.47;;;-143.80;100.00
38225;BME280;24025;48.138;11.428;2023-05-07T05:12:47;66607.47;;;-143.80;100.00
38225;BME280;24025;48.138;11.428;2023-05-07T05:15:19;66607.47;;;-143.80;100.00
38225;BME280;24025;48.138;11.428;2023-05-07T05:17:51;66607.47;;;-143.80;100.00
38225;BME280;24025;48.138;11.428;2023-05-07T05:20:22;66607.47;;;-143.80;100.00
38225;BME280;24025;48.138;11.428;2023-05-07T05:22:54;66607.47;;;-143.80;100.00
38225;BME280;24025;48.138;11.428;2023-05-07T05:25:26;66607.47;;;-143.80;100.00
38225;BME280;24025;48.138;11.428;2023-05-07T05:27:57;66607.47;;;-143.80;100.00
38225;BME280;24025;48.138;11.428;2023-05-07T05:30:29;66607.47;;;-143.80;100.00
38225;BME280;24025;48.138;11.428;2023-05-07T05:33:01;66607.47;;;-143.80;100.00
38225;BME280;24025;48.138;11.428;2023-05-07T05:35:32;66607.47;;;-143.80;100.00
38225;BME280;24025;48.138;11.428;2023-05-07T05:38:04;66607.47;;;-143.80;100.00
38225;BME280;24025;48.138;11.428;2023-05-07T05:40:36;66607.47;;;-143.80;100.00
38225;BME280;24025;48.138;11.428;2023-05-07T05:43:07;66607.47;;;-143.80;100.00
38225;BME280;24025;48.138;11.428;2023-05-07T05:45:39;66607.47;;;-143.80;100.00
38225;BME280;24025;48.138;11.428;2023-05-07T05:48:11;66607.47;;;-143.80;100.00
38225;BME280;24025;48.138;11.428;2023-05-07T05:50:43;66607.47;;;-143.80;100.00
38225;BME280;24025;48.138;11.428;2023-05-07T05:53:14;66607.47;;;-143.80;100.00
38225;BME280;24025;48.138;11.428;2023-05-07T05:55:46;66607.47;;;-143.80;100.00
38225;BME280;24025;48.138;11.428;2023-05-07T05:58:18;66607.47;;;-143.80;100.00
38225;BME280;24025;48.138;11.428;2023-05-07T06:00:50;66607.47;;;-143.80;100.00
38225;BME280;24025;48.138;11.428;2023-05-07T06:03:23;66607.47;;;-143.80;100.00
38225;BME280;24025;48.138;11.428;2023-05-07T06:05:55;66607.47;;;-143.80;100.00
38225;BME280;24025;48.138;11.428;2023-05-07T06:08:29;66607.47;;;-143.80;100.00
38225;BME280;24025;48.138;11.428;2023-05-07T06:11:01;66607.47;;;-143.80;100.00
38225;BME280;24025;48.138;11.428;2023-05-07T06:13:33;66607.47;;;-143.80;100.00
38225;BME280;24025;48.138;11.428;2023-05-07T06:16:04;66607.47;;;-143.80;100.00
38225;BME280;24025;48.138;11.428;2023-05-07T06:18:36;66607.47;;;-143.80;100.00
38225;BME280;24025;48.138;11.428;2023-05-07T06:21:09;66607.47;;;-143.80;100.00
38225;BME280;24025;48.138;11.428;2023-05-07T06:23:41;66607.47;;;-143.80;100.00
38225;BME280;24025;48.138;11.428;2023-05-07T06:26:12;66607.47;;;-143.80;100.00
38225;BME280;24025;48.138;11.428;2023-05-07T06:28:44;66607.47;;;-143.80;100.00
38225;BME280;24025;48.138;11.428;2023-05-07T06:31:17;66607.47;;;-143.80;100.00
38225;BME280;24025;48.138;11.428;2023-05-07T06:33:49;66607.47;;;-143.80;100.00
38225;BME280;24025;48.138;11.428;2023-05-07T06:36:21;66607.47;;;-143.80;100.00
38225;BME280;24025;48.138;11.428;2023-05-07T06:38:52;66607.47;;;-143.80;100.00
38225;BME280;24025;48.138;11.428;2023-05-07T06:41:24;66607.47;;;-143.80;100.00
38225;BME280;24025;48.138;11.428;2023-05-07T06:43:57;66607.47;;;-143.80;100.00
38225;BME280;24025;48.138;11.428;2023-05-07T06:46:28;66607.47;;;-143.80;100.00
38225;BME280;24025;48.138;11.428;2023-05-07T06:49:00;66607.47;;;-143.80;100.00
38225;BME280;24025;48.138;11.428;2023-05-07T06:51:32;66607.47;;;-143.80;100.00
38225;BME280;24025;48.138;11.428;2023-05-07T06:54:04;66607.47;;;-143.80;100.00
38225;BME280;24025;48.138;11.428;2023-05-07T06:56:35;66607.47;;;-143.80;100.00
38225;BME280;24025;48.138;11.428;2023-05-07T06:59:07;66607.47;;;-143.80;100.00
38225;BME280;24025;48.138;11.428;2023-05-07T07:01:39;66607.47;;;-143.80;100.00
38225;BME280;24025;48.138;11.428;2023-05-07T07:04:10;66607.47;;;-143.80;100.00
38225;BME280;24025;48.138;11.428;2023-05-07T07:06:42;66607.47;;;-143.80;100.00
38225;BME280;24025;48.138;11.428;2023-05-07T07:09:14;66607.47;;;-143.80;100.00
38225;BME280;24025;48.138;11.428;2023-05-07T07:11:45;66607.47;;;-143.80;100.00
38225;BME280;24025;48.138;11.428;2023-05-07T07:14:17;66607.47;;;-143.80;100.00
38225;BME280;24025;48.138;11.428;2023-05-07T07:16:48;66607.47;;;-143.80;100.00
38225;BME280;24025;48.138;11.428;2023-05-07T07:19:20;66607.47;;;-143.80;100.00
38225;BME280;24025;48.138;11.428;2023-05-07T07:21:52;66607.47;;;-143.80;100.00
38225;BME280;24025;48.138;11.428;2023-05-07T07:24:23;66607.47;;;-143.80;100.00
38225;BME280;24025;48.138;11.428;2023-05-07T07:26:55;66607.47;;;-143.80;100.00
38225;BME280;24025;48.138;11.428;2023-05-07T07:29:27;66607.47;;;-143.80;100.00
38225;BME280;24025;48.138;11.428;2023-05-07T07:31:58;66607.47;;;-143.80;100.00
38225;BME280;24025;48.138;11.428;2023-05-07T07:34:30;66607.47;;;-143.80;100.00
38225;BME280;24025;48.138;11.428;2023-05-07T07:37:01;66607.47;;;-143.80;100.00
38225;BME280;24025;48.138;11.428;2023-05-07T07:39:36;66607.47;;;-143.80;100.00
38225;BME280;24025;48.138;11.428;2023-05-07T07:42:09;66607.47;;;-143.80;100.00
38225;BME280;24025;48.138;11.428;2023-05-07T07:44:40;66607.47;;;-143.80;100.00
38225;BME280;24025;48.138;11.428;2023-05-07T07:47:12;66607.47;;;-143.80;100.00
38225;BME280;24025;48.138;11.428;2023-05-07T07:49:44;66607.47;;;-143.80;100.00
38225;BME280;24025;48.138;11.428;2023-05-07T07:52:16;66607.47;;;-143.80;100.00
38225;BME280;24025;48.138;11.428;2023-05-07T07:54:48;66607.47;;;-143.80;100.00
38225;BME280;24025;48.138;11.428;2023-05-07T07:57:19;66607.47;;;-143.80;100.00
38225;BME280;24025;48.138;11.428;2023-05-07T07:59:51;66607.47;;;-143.80;100.00
38225;BME280;24025;48.138;11.428;2023-05-07T08:02:23;66607.47;;;-143.80;100.00
38225;BME280;24025;48.138;11.428;2023-05-07T08:04:55;66607.47;;;-143.80;100.00
38225;BME280;24025;48.138;11.428;2023-05-07T08:07:26;66607.47;;;-143.80;100.00
38225;BME280;24025;48.138;11.428;2023-05-07T08:09:58;66607.47;;;-143.80;100.00
38225;BME280;24025;48.138;11.428;2023-05-07T08:12:30;66607.47;;;-143.80;100.00
38225;BME280;24025;48.138;11.428;2023-05-07T08:15:01;66607.47;;;-143.80;100.00
38225;BME280;24025;48.138;11.428;2023-05-07T08:17:33;66607.47;;;-143.80;100.00
38225;BME280;24025;48.138;11.428;2023-05-07T08:20:06;66607.47;;;-143.80;100.00
38225;BME280;24025;48.138;11.428;2023-05-07T08:22:37;66607.47;;;-143.80;100.00
38225;BME280;24025;48.138;11.428;2023-05-07T08:25:09;66607.47;;;-143.80;100.00
38225;BME280;24025;48.138;11.428;2023-05-07T08:27:41;66607.47;;;-143.80;100.00
38225;BME280;24025;48.138;11.428;2023-05-07T08:30:13;66607.47;;;-143.80;100.00
38225;BME280;24025;48.138;11.428;2023-05-07T08:32:44;66607.47;;;-143.80;100.00
38225;BME280;24025;48.138;11.428;2023-05-07T08:35:16;66607.47;;;-143.80;100.00
38225;BME280;24025;48.138;11.428;2023-05-07T08:37:47;66607.47;;;-143.80;100.00
38225;BME280;24025;48.138;11.428;2023-05-07T08:40:20;66607.47;;;-143.80;100.00
38225;BME280;24025;48.138;11.428;2023-05-07T08:42:53;66607.47;;;-143.80;100.00
38225;BME280;24025;48.138;11.428;2023-05-07T08:45:26;66607.47;;;-143.80;100.00
38225;BME280;24025;48.138;11.428;2023-05-07T08:48:01;66607.47;;;-143.80;100.00
38225;BME280;24025;48.138;11.428;2023-05-07T08:50:35;66607.47;;;-143.80;100.00
38225;BME280;24025;48.138;11.428;2023-05-07T08:53:07;66607.47;;;-143.80;100.00
38225;BME280;24025;48.138;11.428;2023-05-07T08:55:39;66607.47;;;-143.80;100.00
38225;BME280;24025;48.138;11.428;2023-05-07T08:58:11;66607.47;;;-143.80;100.00
38225;BME280;24025;48.138;11.428;2023-05-07T09:00:42;66607.47;;;-143.80;100.00
38225;BME280;24025;48.138;11.428;2023-05-07T09:03:14;66607.47;;;-143.80;100.00
38225;BME280;24025;48.138;11.428;2023-05-07T09:05:46;66607.47;;;-143.80;100.00
38225;BME280;24025;48.138;11.428;2023-05-07T09:08:17;66607.47;;;-143.80;100.00
38225;BME280;24025;48.138;11.428;2023-05-07T09:10:49;66607.47;;;-143.80;100.00
38225;BME280;24025;48.138;11.428;2023-05-07T09:13:21;66607.47;;;-143.80;100.00
38225;BME280;24025;48.138;11.428;2023-05-07T09:15:53;66607.47;;;-143.80;100.00
38225;BME280;24025;48.138;11.428;2023-05-07T09:18:24;66607.47;;;-143.80;100.00
38225;BME280;24025;48.138;11.428;2023-05-07T09:20:56;66607.47;;;-143.80;100.00
38225;BME280;24025;48.138;11.428;2023-05-07T09:23:28;66607.47;;;-143.80;100.00
38225;BME280;24025;48.138;11.428;2023-05-07T09:26:00;66607.47;;;-143.80;100.00
38225;BME280;24025;48.138;11.428;2023-05-07T09:28:31;66607.47;;;-143.80;100.00
38225;BME280;24025;48.138;11.428;2023-05-07T09:31:04;66607.47;;;-143.80;100.00
38225;BME280;24025;48.138;11.428;2023-05-07T09:33:36;66607.47;;;-143.80;100.00
38225;BME280;24025;48.138;11.428;2023-05-07T09:36:09;66607.47;;;-143.80;100.00
38225;BME280;24025;48.138;11.428;2023-05-07T09:38:41;66607.47;;;-143.80;100.00
38225;BME280;24025;48.138;11.428;2023-05-07T09:41:13;66607.47;;;-143.80;100.00
38225;BME280;24025;48.138;11.428;2023-05-07T09:43:44;66607.47;;;-143.80;100.00
38225;BME280;24025;48.138;11.428;2023-05-07T09:46:17;66607.47;;;-143.80;100.00
38225;BME280;24025;48.138;11.428;2023-05-07T09:48:52;66607.47;;;-143.80;100.00
38225;BME280;24025;48.138;11.428;2023-05-07T09:51:29;66607.47;;;-143.80;100.00
38225;BME280;24025;48.138;11.428;2023-05-07T09:54:02;66607.47;;;-143.80;100.00
38225;BME280;24025;48.138;11.428;2023-05-07T09:56:35;66607.47;;;-143.80;100.00
38225;BME280;24025;48.138;11.428;2023-05-07T09:59:13;66607.47;;;-143.80;100.00
38225;BME280;24025;48.138;11.428;2023-05-07T10:01:45;66607.47;;;-143.80;100.00
38225;BME280;24025;48.138;11.428;2023-05-07T10:04:18;66607.47;;;-143.80;100.00
38225;BME280;24025;48.138;11.428;2023-05-07T10:06:50;66607.47;;;-143.80;100.00
38225;BME280;24025;48.138;11.428;2023-05-07T10:09:22;66607.47;;;-143.80;100.00
38225;BME280;24025;48.138;11.428;2023-05-07T10:11:54;66607.47;;;-143.80;100.00
38225;BME280;24025;48.138;11.428;2023-05-07T10:14:26;66607.47;;;-143.80;100.00
38225;BME280;24025;48.138;11.428;2023-05-07T10:16:59;66607.47;;;-143.80;100.00
38225;BME280;24025;48.138;11.428;2023-05-07T10:19:32;66607.47;;;-143.80;100.00
38225;BME280;24025;48.138;11.428;2023-05-07T10:22:05;66607.47;;;-143.80;100.00
38225;BME280;24025;48.138;11.428;2023-05-07T10:24:37;66607.47;;;-143.80;100.00
38225;BME280;24025;48.138;11.428;2023-05-07T10:27:10;66607.47;;;-143.80;100.00
38225;BME280;24025;48.138;11.428;2023-05-07T10:32:45;66607.47;;;-143.80;100.00
38225;BME280;24025;48.138;11.428;2023-05-07T10:35:25;66607.47;;;-143.80;100.00
38225;BME280;24025;48.138;11.428;2023-05-07T10:37:57;66607.47;;;-143.80;100.00
38225;BME280;24025;48.138;11.428;2023-05-07T10:40:30;66607.47;;;-143.80;100.00
38225;BME280;24025;48.138;11.428;2023-05-07T10:43:04;66607.47;;;-143.80;100.00
38225;BME280;24025;48.138;11.428;2023-05-07T10:45:41;66607.47;;;-143.80;100.00
38225;BME280;24025;48.138;11.428;2023-05-07T10:48:16;66607.47;;;-143.80;100.00
38225;BME280;24025;48.138;11.428;2023-05-07T10:51:21;66607.47;;;-143.80;100.00
38225;BME280;24025;48.138;11.428;2023-05-07T10:54:20;66607.47;;;-143.80;100.00
38225;BME280;24025;48.138;11.428;2023-05-07T10:56:52;66607.47;;;-143.80;100.00
38225;BME280;24025;48.138;11.428;2023-05-07T10:59:31;66607.47;;;-143.80;100.00
38225;BME280;24025;48.138;11.428;2023-05-07T11:02:03;66607.47;;;-143.80;100.00
38225;BME280;24025;48.138;11.428;2023-05-07T11:04:35;66607.47;;;-143.80;100.00
38225;BME280;24025;48.138;11.428;2023-05-07T11:12:46;66607.47;;;-143.80;100.00
38225;BME280;24025;48.138;11.428;2023-05-07T11:15:53;66607.47;;;-143.80;100.00
38225;BME280;24025;48.138;11.428;2023-05-07T11:18:46;66607.47;;;-143.80;100.00
38225;BME280;24025;48.138;11.428;2023-05-07T11:21:50;66607.47;;;-143.80;100.00
38225;BME280;24025;48.138;11.428;2023-05-07T11:24:22;66607.47;;;-143.80;100.00
38225;BME280;24025;48.138;11.428;2023-05-07T11:26:54;66607.47;;;-143.80;100.00
38225;BME280;24025;48.138;11.428;2023-05-07T11:29:26;66607.47;;;-143.80;100.00
38225;BME280;24025;48.138;11.428;2023-05-07T11:32:00;66607.47;;;-143.80;100.00
38225;BME280;24025;48.138;11.428;2023-05-07T11:34:32;66607.47;;;-143.80;100.00
38225;BME280;24025;48.138;11.428;2023-05-07T11:37:05;66607.47;;;-143.80;100.00
38225;BME280;24025;48.138;11.428;2023-05-07T11:39:36;66607.47;;;-143.80;100.00
38225;BME280;24025;48.138;11.428;2023-05-07T11:42:25;66607.47;;;-143.80;100.00
38225;BME280;24025;48.138;11.428;2023-05-07T11:44:58;66607.47;;;-143.80;100.00
38225;BME280;24025;48.138;11.428;2023-05-07T11:47:30;66607.47;;;-143.80;100.00
38225;BME280;24025;48.138;11.428;2023-05-07T11:50:04;66607.47;;;-143.80;100.00
38225;BME280;24025;48.138;11.428;2023-05-07T11:52:36;66607.47;;;-143.80;100.00
38225;BME280;24025;48.138;11.428;2023-05-07T11:55:10;66607.47;;;-143.80;100.00
38225;BME280;24025;48.138;11.428;2023-05-07T11:57:42;66607.47;;;-143.80;100.00
38225;BME280;24025;48.138;11.428;2023-05-07T12:00:15;66607.47;;;-143.80;100.00
38225;BME280;24025;48.138;11.428;2023-05-07T12:02:47;66607.47;;;-143.80;100.00
38225;BME280;24025;48.138;11.428;2023-05-07T12:05:19;66607.47;;;-143.80;100.00
38225;BME280;24025;48.138;11.428;2023-05-07T12:07:56;66607.47;;;-143.80;100.00
38225;BME280;24025;48.138;11.428;2023-05-07T12:10:27;66607.47;;;-143.80;100.00
38225;BME280;24025;48.138;11.428;2023-05-07T12:12:59;66607.47;;;-143.80;100.00
38225;BME280;24025;48.138;11.428;2023-05-07T12:15:31;66607.47;;;-143.80;100.00
38225;BME280;24025;48.138;11.428;2023-05-07T12:18:06;66607.47;;;-143.80;100.00
38225;BME280;24025;48.138;11.428;2023-05-07T12:20:38;66607.47;;;-143.80;100.00
38225;BME280;24025;48.138;11.428;2023-05-07T12:23:11;66607.47;;;-143.80;100.00
38225;BME280;24025;48.138;11.428;2023-05-07T12:25:42;66607.47;;;-143.80;100.00
38225;BME280;24025;48.138;11.428;2023-05-07T12:28:19;66607.47;;;-143.80;100.00
38225;BME280;24025;48.138;11.428;2023-05-07T12:30:51;66607.47;;;-143.80;100.00
38225;BME280;24025;48.138;11.428;2023-05-07T12:33:25;66607.47;;;-143.80;100.00
38225;BME280;24025;48.138;11.428;2023-05-07T12:35:57;66607.47;;;-143.80;100.00
38225;BME280;24025;48.138;11.428;2023-05-07T12:38:34;66607.47;;;-143.80;100.00
38225;BME280;24025;48.138;11.428;2023-05-07T12:41:08;66607.47;;;-143.80;100.00
38225;BME280;24025;48.138;11.428;2023-05-07T12:43:43;66607.47;;;-143.80;100.00
38225;BME280;24025;48.138;11.428;2023-05-07T12:46:16;66607.47;;;-143.80;100.00
38225;BME280;24025;48.138;11.428;2023-05-07T12:48:49;66607.47;;;-143.80;100.00
38225;BME280;24025;48.138;11.428;2023-05-07T12:51:22;66607.47;;;-143.80;100.00
38225;BME280;24025;48.138;11.428;2023-05-07T12:53:55;66607.47;;;-143.80;100.00
38225;BME280;24025;48.138;11.428;2023-05-07T12:56:30;66607.47;;;-143.80;100.00
38225;BME280;24025;48.138;11.428;2023-05-07T12:59:02;66607.47;;;-143.80;100.00
38225;BME280;24025;48.138;11.428;2023-05-07T13:01:34;66607.47;;;-143.80;100.00
38225;BME280;24025;48.138;11.428;2023-05-07T13:04:06;66607.47;;;-143.80;100.00
38225;BME280;24025;48.138;11.428;2023-05-07T13:06:38;66607.47;;;-143.80;100.00
38225;BME280;24025;48.138;11.428;2023-05-07T13:09:09;66607.47;;;-143.80;100.00